• Join FlightAware (Why Join?)
  • Login
  • US Flag 
05:44PM EDT


 

Airport Tracker/Info


-or-


 

Live Flight TrackerFlight Track Log ✈ ASQ5947 ✈ 10-May-2012 ✈ KIAD - KCRW

Flight Track Log - Related Links

Times and Time Zones

All times are in EDT time to prevent confusion due to time zone crossing. See the ASQ5947 flight status page for this flight to view local times or setup timezone preferences in your user account.

Time Position Orientation Groundspeed Altitude Reporting Facility
EDT Latitude Longitude Course Direction KTS MPH feet Rate Location/Type
05:18PM 38.9500 -77.5000 254° West 182 209 1,700  Level Potomac TRACON
05:19PM 38.9211 -77.6328 239° Southwest 219 252 6,100 1,920 Climbing Washington Center
05:20PM 38.8864 -77.7064 240° Southwest 242 278 7,000 1,080 Climbing Washington Center
05:21PM 38.8539 -77.7775 239° Southwest 249 287 8,300 1,740 Climbing Washington Center
05:22PM 38.8128 -77.8669 266° West 256 295 10,500 1,620 Climbing Washington Center
05:23PM 38.8064 -77.9733 284° West 274 315 11,600 1,440 Climbing Washington Center
05:24PM 38.8272 -78.0778 283° West 290 334 13,400 1,680 Climbing Washington Center
05:25PM 38.8478 -78.1906 273° West 305 351 15,000 1,500 Climbing Washington Center
05:26PM 38.8517 -78.3053 268° West 320 368 16,500 960 Climbing Washington Center
05:27PM 38.8489 -78.4225 269° West 325 374 17,000 240 Climbing Washington Center
05:28PM 38.8478 -78.5478 268° West 338 389 17,000  Level Washington Center
05:29PM 38.8447 -78.6728 268° West 350 403 17,000  Level Washington Center
05:30PM 38.8417 -78.7953 260° West 350 403 17,100 900 Climbing Washington Center
05:31PM 38.8258 -78.9144 257° West 350 403 18,900 1,860 Climbing Washington Center
05:32PM 38.8061 -79.0256 259° West 339 390 20,900 1,920 Climbing Washington Center
05:33PM 38.7906 -79.1261 262° West 329 379 22,800 1,560 Climbing Washington Center
05:34PM 38.7764 -79.2558 258° West 329 379 24,000 600 Climbing Washington Center
05:35PM 38.7558 -79.3772 258° West 342 394 24,000 -300 Level Washington Center
05:36PM 38.7350 -79.5067 259° West 360 414 23,400 -1,080 Descending Washington Center
05:37PM 38.7164 -79.6256 257° West 380 437 21,900 -1,560 Descending Washington Center
05:38PM 38.6933 -79.7544 259° West 380 437 20,400 1,020 Descending Washington Center
05:39PM 38.6744 -79.8783 257° West 375 432 24,000 -1,380 Climbing Washington Center
05:40PM 38.6533 -79.9994 258° West 364 419 17,700 -3,480 Descending Washington Center
05:41PM 38.6317 -80.1336 257° West 357 411 17,000 -360 Descending Washington Center
05:42PM 38.6081 -80.2600 258° West 357 411 17,000 -600 Level Washington Center
05:44PM 38.5811 -80.4222 257° West 348 400 15,600 -1,680 Descending Indianapolis Center
05:45PM 38.5628 -80.5211 260° West 316 364 13,000 -1,980 Descending Indianapolis Center
05:46PM 38.5486 -80.6200 256° West 311 358 11,700 -1,020 Descending Indianapolis Center
05:47PM 38.5264 -80.7350 259° West 324 373 11,000 -360 Descending Indianapolis Center
05:48PM 38.5083 -80.8500 256° West 330 380 11,000 -480 Level Indianapolis Center
05:49PM 38.4894 -80.9436 259° West 308 354 10,100 -1,320 Descending Indianapolis Center
05:50PM 38.4767 -81.0261 258° West 273 314 8,400 -1,620 Descending Indianapolis Center
05:51PM 38.4619 -81.1142 256° West 256 295 6,900 -1,200 Descending Indianapolis Center
05:52PM 38.4447 -81.1997 261° West 250 288 6,000 -1,080 Descending Indianapolis Center
05:53PM 38.4339 -81.2850 262° West 250 288 4,800 -1,200 Descending Indianapolis Center
05:54PM 38.4250 -81.3672 271° West 250 288 3,600 -1,080 Descending Indianapolis Center
05:55PM 38.4264 -81.4442 261° West 233 268 2,700 -600 Descending Indianapolis Center
05:56PM 38.4192 -81.5053 252° West 204 235 2,400 -540 Descending Indianapolis Center
05:57PM 38.4075 -81.5508 247° West 168 193 1,700 -600 Descending Indianapolis Center
05:58PM 38.3897 -81.6042 247° West 151 174 1,300 -420 Descending Indianapolis Center